Poplar Bluff, MO (63901)

9:07 PM CDT on August 29, 2015 (GMT -0500)
Berry Hills Estates | | Change Station
CLOSE
Current Station
Personal Weather Station
Location: Poplar Bluff, MO
Elevation: 413 ft
Nearby Weather Stations

Elev 413 ft 36.74 °N, 90.45 °W | Updated 9 seconds ago

Mostly Cloudy
Mostly Cloudy
73.1 °F
Feels Like 71 °F
N
0.0
Wind Variable Wind from SSE
Gusts 0.0 mph

Today
High -- | Low -- °F
--% Chance of Precip.
Yesterday
High -- | Low -- °F
Precip. -- in
6:30 AM 7:34 PM
Full, 100% visible
Pressure 30.00 in
Visibility 9.0 miles
Clouds Overcast 11000 ft
Heat Index 71 °F
Dew Point Not available.
Humidity Not available.
Rainfall 0.00 in
Snow Depth Not available.
UV 0 out of 12
Pollen 10.50 out of 12
Air Quality Not available.
Flu Activity Not available.
METAR KPOF 300153Z AUTO 00000KT 9SM OVC110 23/21 A3001 RMK AO2 SLP158 T02280211
Pressure 30.00 in
Visibility 9.0 miles
Clouds Overcast 11000 ft
Heat Index 71 °F
Dew Point Not available.
Humidity Not available.
Rainfall 0.00 in
Snow Depth Not available.
UV 0 out of 12
Pollen 10.50 out of 12
Air Quality Not available.
Flu Activity Not available.
METAR KPOF 300153Z AUTO 00000KT 9SM OVC110 23/21 A3001 RMK AO2 SLP158 T02280211

10-Day Weather Forecast

×

Almanac

Astronomy

Aug. 29, 2015 Rise Set
Actual Time
Civil Twilight
Nautical Twilight
Astronomical Twilight
Moon
Length of Visible Light
Length of Day
Tomorrow will be .
, % of the Moon is Illuminated

Today's Extremes

State Highs State Lows

Community

WunderPhotos

Upload Photos

1,850,847 photos uploaded!

WunderBlogs® & News

Nearby

Air Quality

  Air Quality AQ Index Pollutant
Not available.

Snow Depth

Station Depth Elevation

Earthquake Activity

City Distance Mag. Time & Date
Minimum magnitude displayed is 2.5.

Coastal Water Temperatures

Place Temperature

Stations

Nearby Weather Stations

Station Location Temp. Windchill Dew Point Humidity Wind Precip. Elev Updated Type